Terminal Aerodrome Forecast
Issued by NWS

Home | Current Version | Previous Version | Text Only | Print | Product List | Glossary On
Versions: 1 2 3 4 5 6 7 8 9 10 11 12 13 14 15 16 17
192
FTUS41 KPBZ 211423 AAA
TAFMGW
TAF AMD
KMGW 211423Z 2114/2212 27005KT P6SM VCTS BKN040CB
     FM212200 32005KT P6SM SCT040=

USA.gov is the U.S. government's official web portal to all federal, state and local government web resources and services.